Flight Track Log - Related Links

Times and Time Zones

All times are in EDT time to prevent confusion due to time zone crossing. See the FLG4222 flight status page for this flight to view local times or setup timezone preferences in your user account.

Time Position Orientation Groundspeed Altitude Reporting Facility
EDT Latitude Longitude Course Direction KTS MPH feet Rate Location/Type
Wed 10:06:54 AM 42.1903 -83.3536 180° South 171 197 1,500  Level Cleveland Center
Wed 10:07:36 AM 42.1525 -83.3539 180° South 212 244 3,000 2,096 Climbing Cleveland Center
Wed 10:08:17 AM 42.1242 -83.3494 173° South 205 236 4,400 2,418 Climbing Cleveland Center
Wed 10:08:43 AM 42.0969 -83.3153 137° Southeast 250 288 5,700 2,032 Climbing Cleveland Center
Wed 10:09:19 AM 42.0997 -83.2714 85° East 262 302 6,500 2,418 Climbing Cleveland Center
Wed 10:09:50 AM 42.1200 -83.2058 67° East 292 336 8,400 3,049 Climbing Cleveland Center
Wed 10:10:20 AM 42.1342 -83.1569 69° East 291 335 9,600 1,826 Climbing Cleveland Center
Wed 10:11:22 AM 42.1719 -83.0467 65° Northeast 324 373 11,200 1,645 Climbing Cleveland Center
Wed 10:12:24 AM 42.2133 -82.9208 66° East 366 421 13,000 1,645 Climbing Cleveland Center
Wed 10:13:26 AM 42.2525 -82.7869 68° East 385 443 14,600 1,645 Climbing Cleveland Center
Wed 10:14:28 AM 42.2522 -82.6033 90° East 410 472 16,400 1,597 Climbing Cleveland Center
Wed 10:15:30 AM 42.2522 -82.4461 90° East 418 481 17,900 1,403 Climbing Cleveland Center
Wed 10:16:32 AM 42.2522 -82.2892 90° East 421 484 19,300 1,161 Climbing Cleveland Center
Wed 10:17:34 AM 42.2506 -82.1333 91° East 432 497 20,300 968 Climbing Cleveland Center
Wed 10:18:36 AM 42.2489 -81.9644 91° East 442 509 21,300 1,065 Climbing Cleveland Center
Wed 10:19:38 AM 42.2478 -81.7644 90° East 450 518 22,500 968 Climbing Cleveland Center
Wed 10:20:40 AM 42.2453 -81.5900 91° East 457 526 23,300 823 Climbing Cleveland Center
Wed 10:21:42 AM 42.2428 -81.4144 91° East 462 532 24,200 823 Climbing Cleveland Center
Wed 10:22:44 AM 42.2406 -81.2367 91° East 467 537 25,000 387 Climbing Cleveland Center
Wed 10:23:46 AM 42.2372 -81.0544 91° East 477 549 25,000  Level Cleveland Center
Wed 10:24:48 AM 42.2339 -80.8725 91° East 480 552 25,000  Level Cleveland Center
Wed 10:25:50 AM 42.2308 -80.6897 91° East 482 555 25,000  Level Cleveland Center
Wed 10:26:52 AM 42.2272 -80.5075 91° East 483 556 25,000  Level Cleveland Center
Wed 10:27:54 AM 42.2231 -80.2928 91° East 486 559 25,000  Level Cleveland Center
Wed 10:28:56 AM 42.2186 -80.1081 92° East 487 560 25,000  Level Cleveland Center
Wed 10:29:58 AM 42.2131 -79.9239 92° East 484 557 25,000  Level Cleveland Center
Wed 10:31:00 AM 42.2081 -79.7419 92° East 487 560 25,000  Level Cleveland Center
Wed 10:32:02 AM 42.2025 -79.5606 92° East 485 558 25,000  Level Cleveland Center
Wed 10:33:04 AM 42.1969 -79.3781 92° East 487 560 25,000  Level Cleveland Center
Wed 10:34:06 AM 42.1900 -79.1600 92° East 489 563 25,000  Level Cleveland Center
Wed 10:35:09 AM 42.1908 -78.9783 90° East 487 560 25,000  Level Cleveland Center
Wed 10:36:11 AM 42.1947 -78.7897 88° East 483 556 25,000 -145 Level Cleveland Center
Wed 10:37:13 AM 42.1972 -78.6078 89° East 486 559 24,700 -629 Descending Cleveland Center
Wed 10:38:15 AM 42.2008 -78.4303 88° East 479 551 23,700 -1,065 Descending Cleveland Center
Wed 10:39:17 AM 42.2025 -78.2569 89° East 470 541 22,500 -1,306 Descending Cleveland Center
Wed 10:40:19 AM 42.2042 -78.0858 89° East 462 532 21,000 -1,597 Descending Cleveland Center
Wed 10:41:21 AM 42.2072 -77.8878 89° East 448 516 19,200 -1,597 Descending Cleveland Center
Wed 10:42:23 AM 42.2081 -77.7236 90° East 444 511 17,700 -1,403 Descending Cleveland Center
Wed 10:43:25 AM 42.2092 -77.5653 89° East 427 491 16,300 -1,403 Descending Cleveland Center
Wed 10:44:27 AM 42.2094 -77.4106 90° East 418 481 14,800 -1,452 Descending Cleveland Center
Wed 10:45:29 AM 42.2106 -77.2553 89° East 416 479 13,300 -1,034 Descending Cleveland Center
Wed 10:46:23 AM 42.2100 -77.1122 90° East 415 478 12,800 -1,158 Descending New York Center
Wed 10:47:23 AM 42.2136 -76.9697 88° East 396 456 11,100 -1,682 Descending New York Center
Wed 10:48:35 AM 42.2158 -76.8219 89° East 346 398 9,100 -1,299 Descending Cleveland Center
Wed 10:49:37 AM 42.2214 -76.7136 86° East 311 358 8,200 -1,452 Descending Cleveland Center
Wed 10:50:39 AM 42.2233 -76.6044 89° East 296 341 6,100 -2,032 Descending Cleveland Center
Wed 10:51:41 AM 42.2206 -76.4728 92° East 294 338 4,000 -1,016 Descending Cleveland Center
Wed 10:52:43 AM 42.2281 -76.3814 84° East 267 307 4,000  Level Cleveland Center
Wed 10:53:23 AM 42.2306 -76.3300 86° East 255 293 4,000  Level New York Center
Wed 10:54:23 AM 42.2408 -76.2439 81° East 238 274 4,000 -100 Level New York Center
Wed 10:55:23 AM 42.2531 -76.1581 79° East 233 268 3,800 -500 Descending New York Center
Wed 10:56:23 AM 42.2628 -76.0750 81° East 233 268 3,000 -600 Descending New York Center
Wed 10:57:23 AM 42.2550 -76.0156 100° East 201 231 2,600 -350 Descending New York Center
Wed 10:58:23 AM 42.2408 -75.9611 109° East 154 177 2,300 -300 Descending New York Center

Login

Don't have an account? Register now (free) for customized features, flight alerts, and more!